LKPL weather

Letkov Airport
Letkov, Plzeň Region, Czechia

Public forecast

Using degrees Celsius for public forecast. Weather courtesy of forecast.io.

METAR (pilot weather report)

Closest report is Plzeň-Líně Airport, 7.5 nm (13.8 km) WSW. Retrieved 2019/08/25 04:00 UTC (34 minutes ago):

LKLN 250400Z AUTO VRB02KT 7000 NCD 17/17 Q1020

TAF (pilot weather forecast)

Forecast is more than 12 hours old.

Closest forecast is Karlovy Vary International Airport, 35.5 nm (65.8 km) NW. Retrieved 2019/08/24 00:05 UTC (1 day ago):

TAF LKKV 242300Z 2500/2606 10002KT CAVOK TEMPO 2500/2507 VRB02KT 5000 BR NSC BECMG 2507/2509 13006KT TEMPO 2512/2600 13012KT 7000 SHRA SCT040TCU PROB40 TEMPO 2513/2600 17014G28KT 3000 TSRA BKN030CB